sensor_id;sensor_type;location;lat;lon;timestamp;P1;durP1;ratioP1;P2;durP2;ratioP2
7029;SDS011;3556;53.500;10.176;2023-06-24T00:01:50;13.27;;;9.40;;
7029;SDS011;3556;53.500;10.176;2023-06-24T00:04:15;13.63;;;10.93;;
7029;SDS011;3556;53.500;10.176;2023-06-24T00:06:45;9.80;;;8.87;;
7029;SDS011;3556;53.500;10.176;2023-06-24T00:09:11;12.50;;;8.63;;
7029;SDS011;3556;53.500;10.176;2023-06-24T00:11:36;14.30;;;9.40;;
7029;SDS011;3556;53.500;10.176;2023-06-24T00:14:02;14.20;;;9.30;;
7029;SDS011;3556;53.500;10.176;2023-06-24T00:16:28;10.63;;;8.13;;
7029;SDS011;3556;53.500;10.176;2023-06-24T00:18:54;13.37;;;10.13;;
7029;SDS011;3556;53.500;10.176;2023-06-24T00:21:23;11.50;;;9.20;;
7029;SDS011;3556;53.500;10.176;2023-06-24T00:23:55;10.10;;;8.53;;
7029;SDS011;3556;53.500;10.176;2023-06-24T00:26:21;13.00;;;9.40;;
7029;SDS011;3556;53.500;10.176;2023-06-24T00:28:47;20.10;;;9.83;;
7029;SDS011;3556;53.500;10.176;2023-06-24T00:31:12;11.13;;;9.10;;
7029;SDS011;3556;53.500;10.176;2023-06-24T00:33:38;11.60;;;9.90;;
7029;SDS011;3556;53.500;10.176;2023-06-24T00:36:04;11.70;;;9.50;;
7029;SDS011;3556;53.500;10.176;2023-06-24T00:38:33;13.90;;;9.37;;
7029;SDS011;3556;53.500;10.176;2023-06-24T00:40:59;13.63;;;9.70;;
7029;SDS011;3556;53.500;10.176;2023-06-24T00:43:24;14.33;;;9.37;;
7029;SDS011;3556;53.500;10.176;2023-06-24T00:45:50;10.97;;;8.90;;
7029;SDS011;3556;53.500;10.176;2023-06-24T00:48:18;11.30;;;9.10;;
7029;SDS011;3556;53.500;10.176;2023-06-24T00:50:45;10.17;;;8.77;;
7029;SDS011;3556;53.500;10.176;2023-06-24T00:53:11;11.10;;;8.73;;
7029;SDS011;3556;53.500;10.176;2023-06-24T00:55:37;13.00;;;9.27;;
7029;SDS011;3556;53.500;10.176;2023-06-24T00:58:03;11.87;;;9.50;;
7029;SDS011;3556;53.500;10.176;2023-06-24T01:00:29;14.57;;;8.60;;
7029;SDS011;3556;53.500;10.176;2023-06-24T01:02:57;12.00;;;9.00;;
7029;SDS011;3556;53.500;10.176;2023-06-24T01:05:24;9.43;;;7.80;;
7029;SDS011;3556;53.500;10.176;2023-06-24T01:07:51;9.20;;;7.23;;
7029;SDS011;3556;53.500;10.176;2023-06-24T01:10:20;10.53;;;9.03;;
7029;SDS011;3556;53.500;10.176;2023-06-24T01:12:50;12.83;;;8.70;;
7029;SDS011;3556;53.500;10.176;2023-06-24T01:15:15;11.13;;;8.50;;
7029;SDS011;3556;53.500;10.176;2023-06-24T01:20:23;14.67;;;8.27;;
7029;SDS011;3556;53.500;10.176;2023-06-24T01:28:27;14.70;;;9.50;;
7029;SDS011;3556;53.500;10.176;2023-06-24T01:31:24;13.53;;;9.67;;
7029;SDS011;3556;53.500;10.176;2023-06-24T01:36:55;12.60;;;9.80;;
7029;SDS011;3556;53.500;10.176;2023-06-24T01:39:28;10.70;;;8.47;;
7029;SDS011;3556;53.500;10.176;2023-06-24T01:41:59;10.60;;;8.90;;
7029;SDS011;3556;53.500;10.176;2023-06-24T01:44:31;11.87;;;8.03;;
7029;SDS011;3556;53.500;10.176;2023-06-24T01:46:58;13.40;;;9.50;;
7029;SDS011;3556;53.500;10.176;2023-06-24T01:49:27;12.23;;;8.90;;
7029;SDS011;3556;53.500;10.176;2023-06-24T01:51:56;11.27;;;8.60;;
7029;SDS011;3556;53.500;10.176;2023-06-24T01:54:25;11.73;;;8.90;;
7029;SDS011;3556;53.500;10.176;2023-06-24T01:56:53;12.83;;;9.27;;
7029;SDS011;3556;53.500;10.176;2023-06-24T01:59:22;20.23;;;9.67;;
7029;SDS011;3556;53.500;10.176;2023-06-24T02:01:48;12.70;;;9.70;;
7029;SDS011;3556;53.500;10.176;2023-06-24T02:04:17;12.63;;;9.07;;
7029;SDS011;3556;53.500;10.176;2023-06-24T02:06:43;9.80;;;8.60;;
7029;SDS011;3556;53.500;10.176;2023-06-24T02:09:10;13.30;;;9.00;;
7029;SDS011;3556;53.500;10.176;2023-06-24T02:11:37;11.57;;;9.00;;
7029;SDS011;3556;53.500;10.176;2023-06-24T02:14:04;11.30;;;9.00;;
7029;SDS011;3556;53.500;10.176;2023-06-24T02:16:32;12.73;;;9.57;;
7029;SDS011;3556;53.500;10.176;2023-06-24T02:19:00;14.47;;;8.37;;
7029;SDS011;3556;53.500;10.176;2023-06-24T02:21:28;11.03;;;9.13;;
7029;SDS011;3556;53.500;10.176;2023-06-24T02:23:54;11.93;;;8.77;;
7029;SDS011;3556;53.500;10.176;2023-06-24T02:26:21;10.80;;;8.53;;
7029;SDS011;3556;53.500;10.176;2023-06-24T02:28:48;10.00;;;7.70;;
7029;SDS011;3556;53.500;10.176;2023-06-24T02:31:15;9.63;;;7.73;;
7029;SDS011;3556;53.500;10.176;2023-06-24T02:33:41;8.93;;;8.00;;
7029;SDS011;3556;53.500;10.176;2023-06-24T02:36:07;11.30;;;8.87;;
7029;SDS011;3556;53.500;10.176;2023-06-24T02:38:33;9.67;;;8.37;;
7029;SDS011;3556;53.500;10.176;2023-06-24T02:40:59;14.20;;;8.93;;
7029;SDS011;3556;53.500;10.176;2023-06-24T02:43:27;13.93;;;9.10;;
7029;SDS011;3556;53.500;10.176;2023-06-24T02:45:53;12.30;;;8.43;;
7029;SDS011;3556;53.500;10.176;2023-06-24T02:48:19;11.50;;;8.40;;
7029;SDS011;3556;53.500;10.176;2023-06-24T02:50:46;16.53;;;9.10;;
7029;SDS011;3556;53.500;10.176;2023-06-24T02:53:13;11.40;;;8.50;;
7029;SDS011;3556;53.500;10.176;2023-06-24T02:55:40;14.50;;;8.70;;
7029;SDS011;3556;53.500;10.176;2023-06-24T02:58:07;11.47;;;8.83;;
7029;SDS011;3556;53.500;10.176;2023-06-24T03:00:36;12.27;;;8.00;;
7029;SDS011;3556;53.500;10.176;2023-06-24T03:03:03;9.20;;;8.10;;
7029;SDS011;3556;53.500;10.176;2023-06-24T03:05:30;12.97;;;8.03;;
7029;SDS011;3556;53.500;10.176;2023-06-24T03:07:57;11.17;;;8.17;;
7029;SDS011;3556;53.500;10.176;2023-06-24T03:10:27;10.30;;;7.90;;
7029;SDS011;3556;53.500;10.176;2023-06-24T03:12:52;10.23;;;8.73;;
7029;SDS011;3556;53.500;10.176;2023-06-24T03:15:18;9.53;;;8.40;;
7029;SDS011;3556;53.500;10.176;2023-06-24T03:17:44;11.63;;;7.80;;
7029;SDS011;3556;53.500;10.176;2023-06-24T03:20:10;13.70;;;8.40;;
7029;SDS011;3556;53.500;10.176;2023-06-24T03:22:36;11.13;;;8.37;;
7029;SDS011;3556;53.500;10.176;2023-06-24T03:25:02;9.93;;;7.67;;
7029;SDS011;3556;53.500;10.176;2023-06-24T03:27:27;10.13;;;8.57;;
7029;SDS011;3556;53.500;10.176;2023-06-24T03:29:53;15.77;;;8.33;;
7029;SDS011;3556;53.500;10.176;2023-06-24T03:32:19;9.30;;;7.87;;
7029;SDS011;3556;53.500;10.176;2023-06-24T03:34:45;10.10;;;8.27;;
7029;SDS011;3556;53.500;10.176;2023-06-24T03:37:11;8.43;;;7.23;;
7029;SDS011;3556;53.500;10.176;2023-06-24T03:39:36;9.37;;;7.90;;
7029;SDS011;3556;53.500;10.176;2023-06-24T03:42:02;9.50;;;7.77;;
7029;SDS011;3556;53.500;10.176;2023-06-24T03:44:28;12.03;;;8.23;;
7029;SDS011;3556;53.500;10.176;2023-06-24T03:46:53;11.20;;;8.67;;
7029;SDS011;3556;53.500;10.176;2023-06-24T03:49:19;10.30;;;8.10;;
7029;SDS011;3556;53.500;10.176;2023-06-24T03:51:44;8.00;;;7.10;;
7029;SDS011;3556;53.500;10.176;2023-06-24T03:54:10;10.20;;;7.67;;
7029;SDS011;3556;53.500;10.176;2023-06-24T03:56:36;11.63;;;8.07;;
7029;SDS011;3556;53.500;10.176;2023-06-24T03:59:01;11.33;;;7.83;;
7029;SDS011;3556;53.500;10.176;2023-06-24T04:01:27;11.13;;;8.17;;
7029;SDS011;3556;53.500;10.176;2023-06-24T04:03:56;9.97;;;7.80;;
7029;SDS011;3556;53.500;10.176;2023-06-24T04:06:22;8.60;;;7.40;;
7029;SDS011;3556;53.500;10.176;2023-06-24T04:08:48;11.03;;;7.80;;
7029;SDS011;3556;53.500;10.176;2023-06-24T04:11:13;9.57;;;8.60;;
7029;SDS011;3556;53.500;10.176;2023-06-24T04:13:39;13.50;;;10.00;;
7029;SDS011;3556;53.500;10.176;2023-06-24T04:16:05;11.37;;;8.10;;
7029;SDS011;3556;53.500;10.176;2023-06-24T04:18:30;15.20;;;9.50;;
7029;SDS011;3556;53.500;10.176;2023-06-24T04:20:56;12.60;;;10.00;;
7029;SDS011;3556;53.500;10.176;2023-06-24T04:23:22;15.50;;;10.10;;
7029;SDS011;3556;53.500;10.176;2023-06-24T04:25:48;15.10;;;9.90;;
7029;SDS011;3556;53.500;10.176;2023-06-24T04:28:14;16.43;;;10.60;;
7029;SDS011;3556;53.500;10.176;2023-06-24T04:30:39;26.37;;;11.00;;
7029;SDS011;3556;53.500;10.176;2023-06-24T04:33:05;14.73;;;10.77;;
7029;SDS011;3556;53.500;10.176;2023-06-24T04:35:31;16.33;;;10.40;;
7029;SDS011;3556;53.500;10.176;2023-06-24T04:37:57;16.73;;;12.40;;
7029;SDS011;3556;53.500;10.176;2023-06-24T04:40:23;25.43;;;15.80;;
7029;SDS011;3556;53.500;10.176;2023-06-24T04:42:48;27.33;;;17.90;;
7029;SDS011;3556;53.500;10.176;2023-06-24T04:45:14;33.97;;;18.27;;
7029;SDS011;3556;53.500;10.176;2023-06-24T04:47:40;22.80;;;16.53;;
7029;SDS011;3556;53.500;10.176;2023-06-24T04:50:06;35.17;;;20.77;;
7029;SDS011;3556;53.500;10.176;2023-06-24T04:52:34;33.77;;;19.00;;
7029;SDS011;3556;53.500;10.176;2023-06-24T04:55:00;42.30;;;21.60;;
7029;SDS011;3556;53.500;10.176;2023-06-24T04:57:27;34.80;;;20.80;;
7029;SDS011;3556;53.500;10.176;2023-06-24T04:59:53;36.80;;;20.47;;
7029;SDS011;3556;53.500;10.176;2023-06-24T05:02:19;35.07;;;20.73;;
7029;SDS011;3556;53.500;10.176;2023-06-24T05:04:45;31.50;;;18.50;;
7029;SDS011;3556;53.500;10.176;2023-06-24T05:07:11;42.70;;;20.93;;
7029;SDS011;3556;53.500;10.176;2023-06-24T05:09:37;34.17;;;20.87;;
7029;SDS011;3556;53.500;10.176;2023-06-24T05:12:06;37.43;;;21.07;;
7029;SDS011;3556;53.500;10.176;2023-06-24T05:14:35;36.23;;;21.03;;
7029;SDS011;3556;53.500;10.176;2023-06-24T05:17:04;36.93;;;20.50;;
7029;SDS011;3556;53.500;10.176;2023-06-24T05:19:30;36.97;;;20.90;;
7029;SDS011;3556;53.500;10.176;2023-06-24T05:21:56;34.47;;;20.43;;
7029;SDS011;3556;53.500;10.176;2023-06-24T05:24:22;38.80;;;20.13;;
7029;SDS011;3556;53.500;10.176;2023-06-24T05:26:48;29.90;;;19.00;;
7029;SDS011;3556;53.500;10.176;2023-06-24T05:29:14;39.60;;;19.50;;
7029;SDS011;3556;53.500;10.176;2023-06-24T05:31:41;31.50;;;19.27;;
7029;SDS011;3556;53.500;10.176;2023-06-24T05:34:07;38.43;;;19.40;;
7029;SDS011;3556;53.500;10.176;2023-06-24T05:36:33;25.13;;;16.80;;
7029;SDS011;3556;53.500;10.176;2023-06-24T05:38:59;29.20;;;16.90;;
7029;SDS011;3556;53.500;10.176;2023-06-24T05:41:24;26.30;;;16.83;;
7029;SDS011;3556;53.500;10.176;2023-06-24T05:44:00;34.30;;;19.13;;
7029;SDS011;3556;53.500;10.176;2023-06-24T05:46:29;29.97;;;17.90;;
7029;SDS011;3556;53.500;10.176;2023-06-24T05:48:55;31.80;;;18.27;;
7029;SDS011;3556;53.500;10.176;2023-06-24T05:51:21;18.90;;;14.00;;
7029;SDS011;3556;53.500;10.176;2023-06-24T05:53:47;25.90;;;16.57;;
7029;SDS011;3556;53.500;10.176;2023-06-24T05:56:12;25.53;;;16.47;;
7029;SDS011;3556;53.500;10.176;2023-06-24T05:58:38;26.43;;;14.67;;
7029;SDS011;3556;53.500;10.176;2023-06-24T06:01:03;26.83;;;15.37;;
7029;SDS011;3556;53.500;10.176;2023-06-24T06:03:29;28.90;;;17.40;;
7029;SDS011;3556;53.500;10.176;2023-06-24T06:05:56;26.77;;;17.83;;
7029;SDS011;3556;53.500;10.176;2023-06-24T06:08:21;21.90;;;14.37;;
7029;SDS011;3556;53.500;10.176;2023-06-24T06:10:47;16.27;;;12.37;;
7029;SDS011;3556;53.500;10.176;2023-06-24T06:13:12;21.40;;;14.30;;
7029;SDS011;3556;53.500;10.176;2023-06-24T06:15:39;17.03;;;12.50;;
7029;SDS011;3556;53.500;10.176;2023-06-24T06:18:04;15.90;;;11.57;;
7029;SDS011;3556;53.500;10.176;2023-06-24T06:20:30;15.23;;;11.20;;
7029;SDS011;3556;53.500;10.176;2023-06-24T06:22:55;19.90;;;12.67;;
7029;SDS011;3556;53.500;10.176;2023-06-24T06:25:21;17.47;;;12.77;;
7029;SDS011;3556;53.500;10.176;2023-06-24T06:27:47;13.63;;;9.80;;
7029;SDS011;3556;53.500;10.176;2023-06-24T06:30:13;18.77;;;12.10;;
7029;SDS011;3556;53.500;10.176;2023-06-24T06:32:39;22.90;;;11.23;;
7029;SDS011;3556;53.500;10.176;2023-06-24T06:35:04;16.03;;;10.90;;
7029;SDS011;3556;53.500;10.176;2023-06-24T06:37:30;15.27;;;10.80;;
7029;SDS011;3556;53.500;10.176;2023-06-24T06:39:56;13.50;;;9.70;;
7029;SDS011;3556;53.500;10.176;2023-06-24T06:42:21;12.57;;;9.20;;
7029;SDS011;3556;53.500;10.176;2023-06-24T06:44:47;12.73;;;7.27;;
7029;SDS011;3556;53.500;10.176;2023-06-24T06:47:12;9.07;;;6.97;;
7029;SDS011;3556;53.500;10.176;2023-06-24T06:49:38;8.67;;;7.10;;
7029;SDS011;3556;53.500;10.176;2023-06-24T06:52:04;10.43;;;6.80;;
7029;SDS011;3556;53.500;10.176;2023-06-24T06:54:30;11.70;;;6.83;;
7029;SDS011;3556;53.500;10.176;2023-06-24T06:57:00;11.60;;;6.60;;
7029;SDS011;3556;53.500;10.176;2023-06-24T06:59:26;8.43;;;6.90;;
7029;SDS011;3556;53.500;10.176;2023-06-24T07:01:52;8.20;;;6.37;;
7029;SDS011;3556;53.500;10.176;2023-06-24T07:04:18;7.00;;;6.20;;
7029;SDS011;3556;53.500;10.176;2023-06-24T07:06:44;10.23;;;5.90;;
7029;SDS011;3556;53.500;10.176;2023-06-24T07:09:10;8.70;;;6.07;;
7029;SDS011;3556;53.500;10.176;2023-06-24T07:11:35;7.27;;;5.57;;
7029;SDS011;3556;53.500;10.176;2023-06-24T07:14:01;8.80;;;5.53;;
7029;SDS011;3556;53.500;10.176;2023-06-24T07:16:26;7.50;;;5.97;;
7029;SDS011;3556;53.500;10.176;2023-06-24T07:18:52;9.03;;;6.20;;
7029;SDS011;3556;53.500;10.176;2023-06-24T07:21:18;11.23;;;6.13;;
7029;SDS011;3556;53.500;10.176;2023-06-24T07:23:43;7.57;;;6.67;;
7029;SDS011;3556;53.500;10.176;2023-06-24T07:26:09;9.70;;;7.07;;
7029;SDS011;3556;53.500;10.176;2023-06-24T07:28:35;9.63;;;6.93;;
7029;SDS011;3556;53.500;10.176;2023-06-24T07:31:00;11.27;;;7.20;;
7029;SDS011;3556;53.500;10.176;2023-06-24T07:33:26;13.00;;;7.00;;
7029;SDS011;3556;53.500;10.176;2023-06-24T07:35:52;9.27;;;6.90;;
7029;SDS011;3556;53.500;10.176;2023-06-24T07:38:18;7.70;;;6.10;;
7029;SDS011;3556;53.500;10.176;2023-06-24T07:40:43;9.50;;;6.10;;
7029;SDS011;3556;53.500;10.176;2023-06-24T07:43:09;6.10;;;5.53;;
7029;SDS011;3556;53.500;10.176;2023-06-24T07:45:34;7.10;;;5.70;;
7029;SDS011;3556;53.500;10.176;2023-06-24T07:48:00;8.03;;;5.10;;
7029;SDS011;3556;53.500;10.176;2023-06-24T07:50:25;5.50;;;5.07;;
7029;SDS011;3556;53.500;10.176;2023-06-24T07:52:51;7.27;;;5.83;;
7029;SDS011;3556;53.500;10.176;2023-06-24T07:55:17;5.77;;;5.00;;
7029;SDS011;3556;53.500;10.176;2023-06-24T07:57:46;5.30;;;4.90;;
7029;SDS011;3556;53.500;10.176;2023-06-24T08:00:12;9.53;;;4.93;;
7029;SDS011;3556;53.500;10.176;2023-06-24T08:02:38;8.73;;;5.40;;
7029;SDS011;3556;53.500;10.176;2023-06-24T08:05:04;9.53;;;4.77;;
7029;SDS011;3556;53.500;10.176;2023-06-24T08:07:30;8.03;;;5.87;;
7029;SDS011;3556;53.500;10.176;2023-06-24T08:09:55;7.40;;;6.10;;
7029;SDS011;3556;53.500;10.176;2023-06-24T08:12:21;8.50;;;5.80;;
7029;SDS011;3556;53.500;10.176;2023-06-24T08:14:46;7.67;;;5.83;;
7029;SDS011;3556;53.500;10.176;2023-06-24T08:17:12;12.10;;;6.03;;
7029;SDS011;3556;53.500;10.176;2023-06-24T08:19:38;8.03;;;5.90;;
7029;SDS011;3556;53.500;10.176;2023-06-24T08:22:03;7.80;;;5.90;;
7029;SDS011;3556;53.500;10.176;2023-06-24T08:24:29;7.10;;;6.20;;
7029;SDS011;3556;53.500;10.176;2023-06-24T08:26:56;8.17;;;6.17;;
7029;SDS011;3556;53.500;10.176;2023-06-24T08:29:21;11.77;;;6.30;;
7029;SDS011;3556;53.500;10.176;2023-06-24T08:31:47;8.47;;;6.40;;
7029;SDS011;3556;53.500;10.176;2023-06-24T08:34:13;7.30;;;6.60;;
7029;SDS011;3556;53.500;10.176;2023-06-24T08:36:38;9.83;;;6.50;;
7029;SDS011;3556;53.500;10.176;2023-06-24T08:39:04;6.50;;;5.90;;
7029;SDS011;3556;53.500;10.176;2023-06-24T08:41:30;6.63;;;5.93;;
7029;SDS011;3556;53.500;10.176;2023-06-24T08:43:55;8.07;;;5.50;;
7029;SDS011;3556;53.500;10.176;2023-06-24T08:46:21;6.60;;;5.70;;
7029;SDS011;3556;53.500;10.176;2023-06-24T08:48:49;6.47;;;5.47;;
7029;SDS011;3556;53.500;10.176;2023-06-24T08:51:23;5.47;;;4.97;;
7029;SDS011;3556;53.500;10.176;2023-06-24T08:53:52;5.90;;;5.33;;
7029;SDS011;3556;53.500;10.176;2023-06-24T08:56:18;6.97;;;5.50;;
7029;SDS011;3556;53.500;10.176;2023-06-24T08:58:45;6.13;;;5.53;;
7029;SDS011;3556;53.500;10.176;2023-06-24T09:01:10;6.30;;;5.70;;
7029;SDS011;3556;53.500;10.176;2023-06-24T09:03:37;10.13;;;5.77;;
7029;SDS011;3556;53.500;10.176;2023-06-24T09:06:03;7.77;;;5.80;;
7029;SDS011;3556;53.500;10.176;2023-06-24T09:08:28;6.53;;;5.93;;
7029;SDS011;3556;53.500;10.176;2023-06-24T09:10:54;7.37;;;5.03;;
7029;SDS011;3556;53.500;10.176;2023-06-24T09:13:20;5.13;;;4.73;;
7029;SDS011;3556;53.500;10.176;2023-06-24T09:15:52;5.80;;;4.97;;
7029;SDS011;3556;53.500;10.176;2023-06-24T09:18:18;5.63;;;5.07;;
7029;SDS011;3556;53.500;10.176;2023-06-24T09:20:44;5.30;;;4.90;;
7029;SDS011;3556;53.500;10.176;2023-06-24T09:23:14;7.90;;;5.00;;
7029;SDS011;3556;53.500;10.176;2023-06-24T09:25:41;6.23;;;4.87;;
7029;SDS011;3556;53.500;10.176;2023-06-24T09:28:07;6.57;;;5.20;;
7029;SDS011;3556;53.500;10.176;2023-06-24T09:30:33;7.10;;;5.60;;
7029;SDS011;3556;53.500;10.176;2023-06-24T09:32:58;6.10;;;5.50;;
7029;SDS011;3556;53.500;10.176;2023-06-24T09:35:24;7.13;;;5.43;;
7029;SDS011;3556;53.500;10.176;2023-06-24T09:37:54;6.10;;;5.50;;
7029;SDS011;3556;53.500;10.176;2023-06-24T09:40:21;7.37;;;4.93;;
7029;SDS011;3556;53.500;10.176;2023-06-24T09:42:48;6.10;;;5.50;;
7029;SDS011;3556;53.500;10.176;2023-06-24T09:45:14;6.00;;;5.50;;
7029;SDS011;3556;53.500;10.176;2023-06-24T09:47:39;11.60;;;5.87;;
7029;SDS011;3556;53.500;10.176;2023-06-24T09:50:05;6.20;;;5.63;;
7029;SDS011;3556;53.500;10.176;2023-06-24T09:52:31;5.40;;;4.90;;
7029;SDS011;3556;53.500;10.176;2023-06-24T09:54:58;10.70;;;5.40;;
7029;SDS011;3556;53.500;10.176;2023-06-24T09:57:26;5.90;;;5.30;;
7029;SDS011;3556;53.500;10.176;2023-06-24T09:59:54;7.83;;;5.40;;
7029;SDS011;3556;53.500;10.176;2023-06-24T10:02:21;6.70;;;6.00;;
7029;SDS011;3556;53.500;10.176;2023-06-24T10:04:47;6.57;;;5.57;;
7029;SDS011;3556;53.500;10.176;2023-06-24T10:07:14;6.17;;;5.10;;
7029;SDS011;3556;53.500;10.176;2023-06-24T10:09:40;7.17;;;5.40;;
7029;SDS011;3556;53.500;10.176;2023-06-24T10:12:06;6.70;;;5.73;;
7029;SDS011;3556;53.500;10.176;2023-06-24T10:14:32;6.13;;;5.53;;
7029;SDS011;3556;53.500;10.176;2023-06-24T10:17:01;7.17;;;5.80;;
7029;SDS011;3556;53.500;10.176;2023-06-24T10:19:28;10.50;;;6.13;;
7029;SDS011;3556;53.500;10.176;2023-06-24T10:21:58;6.00;;;5.40;;
7029;SDS011;3556;53.500;10.176;2023-06-24T10:24:28;9.07;;;6.10;;
7029;SDS011;3556;53.500;10.176;2023-06-24T10:27:02;6.07;;;5.57;;
7029;SDS011;3556;53.500;10.176;2023-06-24T10:29:33;6.83;;;6.20;;
7029;SDS011;3556;53.500;10.176;2023-06-24T10:32:18;6.10;;;5.60;;
7029;SDS011;3556;53.500;10.176;2023-06-24T10:34:46;7.80;;;5.50;;
7029;SDS011;3556;53.500;10.176;2023-06-24T10:37:25;7.90;;;5.57;;
7029;SDS011;3556;53.500;10.176;2023-06-24T10:39:52;6.20;;;5.60;;
7029;SDS011;3556;53.500;10.176;2023-06-24T10:42:38;9.97;;;5.20;;
7029;SDS011;3556;53.500;10.176;2023-06-24T10:47:41;6.40;;;5.13;;
7029;SDS011;3556;53.500;10.176;2023-06-24T10:50:09;6.70;;;5.23;;
7029;SDS011;3556;53.500;10.176;2023-06-24T10:52:40;5.37;;;4.70;;
7029;SDS011;3556;53.500;10.176;2023-06-24T10:55:08;5.53;;;4.87;;
7029;SDS011;3556;53.500;10.176;2023-06-24T10:57:34;7.67;;;4.70;;
7029;SDS011;3556;53.500;10.176;2023-06-24T11:00:00;5.60;;;5.10;;
7029;SDS011;3556;53.500;10.176;2023-06-24T11:02:28;6.90;;;4.83;;
7029;SDS011;3556;53.500;10.176;2023-06-24T11:04:57;5.23;;;4.73;;
7029;SDS011;3556;53.500;10.176;2023-06-24T11:07:25;6.00;;;5.40;;
7029;SDS011;3556;53.500;10.176;2023-06-24T11:09:55;5.33;;;4.83;;
7029;SDS011;3556;53.500;10.176;2023-06-24T11:12:27;6.10;;;5.50;;
7029;SDS011;3556;53.500;10.176;2023-06-24T11:14:58;6.83;;;4.90;;
7029;SDS011;3556;53.500;10.176;2023-06-24T11:17:26;5.67;;;4.93;;
7029;SDS011;3556;53.500;10.176;2023-06-24T11:19:52;9.47;;;5.13;;
7029;SDS011;3556;53.500;10.176;2023-06-24T11:22:19;5.13;;;4.53;;
7029;SDS011;3556;53.500;10.176;2023-06-24T11:24:45;6.23;;;4.60;;
7029;SDS011;3556;53.500;10.176;2023-06-24T11:27:11;4.67;;;4.27;;
7029;SDS011;3556;53.500;10.176;2023-06-24T11:29:36;5.13;;;4.73;;
7029;SDS011;3556;53.500;10.176;2023-06-24T11:32:03;4.93;;;4.47;;
7029;SDS011;3556;53.500;10.176;2023-06-24T11:34:32;5.63;;;4.40;;
7029;SDS011;3556;53.500;10.176;2023-06-24T11:36:58;6.00;;;4.97;;
7029;SDS011;3556;53.500;10.176;2023-06-24T11:39:34;4.37;;;4.07;;
7029;SDS011;3556;53.500;10.176;2023-06-24T11:42:00;4.10;;;3.70;;
7029;SDS011;3556;53.500;10.176;2023-06-24T11:44:25;4.20;;;3.90;;
7029;SDS011;3556;53.500;10.176;2023-06-24T11:46:51;5.27;;;4.00;;
7029;SDS011;3556;53.500;10.176;2023-06-24T11:49:17;4.40;;;4.07;;
7029;SDS011;3556;53.500;10.176;2023-06-24T11:51:47;6.03;;;5.00;;
7029;SDS011;3556;53.500;10.176;2023-06-24T11:54:15;5.17;;;4.67;;
7029;SDS011;3556;53.500;10.176;2023-06-24T11:56:43;7.17;;;4.67;;
7029;SDS011;3556;53.500;10.176;2023-06-24T12:01:42;4.10;;;3.80;;
7029;SDS011;3556;53.500;10.176;2023-06-24T12:04:12;5.30;;;4.33;;
7029;SDS011;3556;53.500;10.176;2023-06-24T12:06:39;4.17;;;3.90;;
7029;SDS011;3556;53.500;10.176;2023-06-24T12:09:05;4.17;;;3.67;;
7029;SDS011;3556;53.500;10.176;2023-06-24T12:11:32;3.97;;;3.77;;
7029;SDS011;3556;53.500;10.176;2023-06-24T12:13:57;4.70;;;4.30;;
7029;SDS011;3556;53.500;10.176;2023-06-24T12:16:23;4.23;;;4.03;;
7029;SDS011;3556;53.500;10.176;2023-06-24T12:18:49;4.47;;;4.07;;
7029;SDS011;3556;53.500;10.176;2023-06-24T12:21:15;4.30;;;4.00;;
7029;SDS011;3556;53.500;10.176;2023-06-24T12:23:41;4.43;;;4.03;;
7029;SDS011;3556;53.500;10.176;2023-06-24T12:26:06;3.83;;;3.63;;
7029;SDS011;3556;53.500;10.176;2023-06-24T12:28:32;11.70;;;5.17;;
7029;SDS011;3556;53.500;10.176;2023-06-24T12:30:57;5.07;;;4.60;;
7029;SDS011;3556;53.500;10.176;2023-06-24T12:33:23;6.87;;;5.17;;
7029;SDS011;3556;53.500;10.176;2023-06-24T12:35:49;5.00;;;4.60;;
7029;SDS011;3556;53.500;10.176;2023-06-24T12:38:14;4.97;;;4.33;;
7029;SDS011;3556;53.500;10.176;2023-06-24T12:40:41;4.97;;;4.47;;
7029;SDS011;3556;53.500;10.176;2023-06-24T12:43:07;4.93;;;4.63;;
7029;SDS011;3556;53.500;10.176;2023-06-24T12:45:32;5.17;;;4.70;;
7029;SDS011;3556;53.500;10.176;2023-06-24T12:47:58;4.50;;;4.20;;
7029;SDS011;3556;53.500;10.176;2023-06-24T12:50:24;7.20;;;4.80;;
7029;SDS011;3556;53.500;10.176;2023-06-24T12:52:50;6.40;;;4.50;;
7029;SDS011;3556;53.500;10.176;2023-06-24T12:55:16;4.67;;;4.30;;
7029;SDS011;3556;53.500;10.176;2023-06-24T12:57:42;14.20;;;7.07;;
7029;SDS011;3556;53.500;10.176;2023-06-24T13:00:07;5.47;;;4.97;;
7029;SDS011;3556;53.500;10.176;2023-06-24T13:02:34;5.60;;;5.20;;
7029;SDS011;3556;53.500;10.176;2023-06-24T13:05:01;5.53;;;4.70;;
7029;SDS011;3556;53.500;10.176;2023-06-24T13:07:27;4.97;;;4.57;;
7029;SDS011;3556;53.500;10.176;2023-06-24T13:09:53;4.77;;;4.33;;
7029;SDS011;3556;53.500;10.176;2023-06-24T13:12:19;5.10;;;4.67;;
7029;SDS011;3556;53.500;10.176;2023-06-24T13:14:45;5.47;;;4.60;;
7029;SDS011;3556;53.500;10.176;2023-06-24T13:17:11;8.10;;;4.53;;
7029;SDS011;3556;53.500;10.176;2023-06-24T13:19:36;5.30;;;4.67;;
7029;SDS011;3556;53.500;10.176;2023-06-24T13:22:02;4.33;;;3.97;;
7029;SDS011;3556;53.500;10.176;2023-06-24T13:24:28;9.63;;;4.67;;
7029;SDS011;3556;53.500;10.176;2023-06-24T13:26:53;5.10;;;4.70;;
7029;SDS011;3556;53.500;10.176;2023-06-24T13:29:19;6.83;;;4.90;;
7029;SDS011;3556;53.500;10.176;2023-06-24T13:31:45;5.97;;;4.30;;
7029;SDS011;3556;53.500;10.176;2023-06-24T13:34:11;10.93;;;4.90;;
7029;SDS011;3556;53.500;10.176;2023-06-24T13:36:37;5.43;;;4.43;;
7029;SDS011;3556;53.500;10.176;2023-06-24T13:39:04;8.13;;;4.30;;
7029;SDS011;3556;53.500;10.176;2023-06-24T13:41:34;5.23;;;4.73;;
7029;SDS011;3556;53.500;10.176;2023-06-24T13:44:00;4.70;;;4.30;;
7029;SDS011;3556;53.500;10.176;2023-06-24T13:46:27;5.90;;;4.70;;
7029;SDS011;3556;53.500;10.176;2023-06-24T13:48:54;7.10;;;4.80;;
7029;SDS011;3556;53.500;10.176;2023-06-24T13:51:20;4.87;;;4.57;;
7029;SDS011;3556;53.500;10.176;2023-06-24T13:53:49;4.60;;;4.30;;
7029;SDS011;3556;53.500;10.176;2023-06-24T13:56:16;6.83;;;4.33;;
7029;SDS011;3556;53.500;10.176;2023-06-24T13:58:43;4.60;;;4.20;;
7029;SDS011;3556;53.500;10.176;2023-06-24T14:01:09;5.20;;;4.70;;
7029;SDS011;3556;53.500;10.176;2023-06-24T14:03:35;4.77;;;4.27;;
7029;SDS011;3556;53.500;10.176;2023-06-24T14:06:00;4.80;;;4.40;;
7029;SDS011;3556;53.500;10.176;2023-06-24T14:08:28;4.87;;;4.30;;
7029;SDS011;3556;53.500;10.176;2023-06-24T14:10:55;4.37;;;4.07;;
7029;SDS011;3556;53.500;10.176;2023-06-24T14:13:22;6.60;;;4.60;;
7029;SDS011;3556;53.500;10.176;2023-06-24T14:15:48;4.53;;;4.23;;
7029;SDS011;3556;53.500;10.176;2023-06-24T14:18:13;4.93;;;4.53;;
7029;SDS011;3556;53.500;10.176;2023-06-24T14:20:39;5.37;;;4.80;;
7029;SDS011;3556;53.500;10.176;2023-06-24T14:23:05;6.57;;;4.80;;
7029;SDS011;3556;53.500;10.176;2023-06-24T14:25:30;4.87;;;4.50;;
7029;SDS011;3556;53.500;10.176;2023-06-24T14:27:56;4.47;;;4.10;;
7029;SDS011;3556;53.500;10.176;2023-06-24T14:30:22;11.13;;;4.50;;
7029;SDS011;3556;53.500;10.176;2023-06-24T14:32:47;5.20;;;4.70;;
7029;SDS011;3556;53.500;10.176;2023-06-24T14:35:13;5.07;;;4.43;;
7029;SDS011;3556;53.500;10.176;2023-06-24T14:37:39;3.90;;;3.70;;
7029;SDS011;3556;53.500;10.176;2023-06-24T14:40:05;5.57;;;4.50;;
7029;SDS011;3556;53.500;10.176;2023-06-24T14:42:31;4.13;;;3.93;;
7029;SDS011;3556;53.500;10.176;2023-06-24T14:44:57;4.80;;;3.83;;
7029;SDS011;3556;53.500;10.176;2023-06-24T14:47:22;11.50;;;4.07;;
7029;SDS011;3556;53.500;10.176;2023-06-24T14:49:48;4.73;;;4.33;;
7029;SDS011;3556;53.500;10.176;2023-06-24T14:52:14;4.60;;;4.23;;
7029;SDS011;3556;53.500;10.176;2023-06-24T14:54:39;4.93;;;4.53;;
7029;SDS011;3556;53.500;10.176;2023-06-24T14:57:05;4.67;;;4.27;;
7029;SDS011;3556;53.500;10.176;2023-06-24T14:59:31;9.50;;;4.20;;
7029;SDS011;3556;53.500;10.176;2023-06-24T15:01:56;4.77;;;4.37;;
7029;SDS011;3556;53.500;10.176;2023-06-24T15:04:22;4.40;;;4.10;;
7029;SDS011;3556;53.500;10.176;2023-06-24T15:06:47;5.90;;;4.73;;